Time;durP1;ratioP1;P1;durP2;ratioP2;P2;SDS_P1;SDS_P2;PMS_P1;PMS_P2;Temp;Humidity;BMP_temperature;BMP_pressure;BME280_temperature;BME280_humidity;BME280_pressure;Samples;Min_cycle;Max_cycle;Signal;HPM_P1;HPM_P2
2022/07/29 00:00:40;;;;;;;;;6.75;6.75;;;;;25.51;31.48;100975.88;2120234;27;47877;-61
2022/07/29 00:01:42;;;;;;;;;10.00;9.00;;;;;25.50;31.08;100975.00;2111650;27;47102;-63
2022/07/29 00:02:42;;;;;;;;;9.00;7.20;;;;;25.49;30.99;100976.00;2111374;27;47925;-62
2022/07/29 00:03:43;;;;;;;;;6.00;6.00;;;;;25.49;31.03;100966.97;2102350;28;47441;-63
2022/07/29 00:04:43;;;;;;;;;7.00;7.00;;;;;25.47;31.18;100971.69;2101463;27;47931;-60
2022/07/29 00:05:44;;;;;;;;;4.75;4.75;;;;;25.44;31.32;100971.94;2117643;27;47357;-63
2022/07/29 00:06:44;;;;;;;;;4.50;4.50;;;;;25.41;31.52;100975.78;2120541;27;47306;-61
2022/07/29 00:07:45;;;;;;;;;8.25;8.00;;;;;25.38;31.47;100967.84;2117834;27;47602;-60
2022/07/29 00:08:45;;;;;;;;;9.00;9.00;;;;;25.32;31.19;100971.06;2118588;27;47511;-63
2022/07/29 00:09:45;;;;;;;;;5.00;5.00;;;;;25.29;31.72;100970.44;2112309;27;47643;-62
2022/07/29 00:10:46;;;;;;;;;9.00;9.00;;;;;25.25;31.57;100972.53;2110654;27;47814;-63
2022/07/29 00:11:47;;;;;;;;;8.50;7.25;;;;;25.23;31.75;100964.50;2117885;27;47015;-62
2022/07/29 00:12:48;;;;;;;;;4.40;4.40;;;;;25.21;31.44;100957.47;2119792;27;46818;-63
2022/07/29 00:13:48;;;;;;;;;6.25;6.25;;;;;25.21;31.67;100971.03;2120990;27;47986;-64
2022/07/29 00:14:48;;;;;;;;;7.50;6.75;;;;;25.21;31.73;100954.75;2120018;27;47626;-59
2022/07/29 00:15:49;;;;;;;;;7.75;7.75;;;;;25.21;31.72;100949.31;2118238;27;47449;-63
2022/07/29 00:16:49;;;;;;;;;7.00;7.00;;;;;25.20;31.83;100948.44;2119745;27;47645;-62
2022/07/29 00:17:50;;;;;;;;;8.25;7.75;;;;;25.21;31.55;100957.47;2121043;27;47423;-61
2022/07/29 00:18:50;;;;;;;;;8.25;7.00;;;;;25.21;31.66;100955.59;2119153;27;47572;-63
2022/07/29 00:19:51;;;;;;;;;9.00;8.75;;;;;25.20;32.01;100951.16;2115385;27;48016;-60
2022/07/29 00:20:51;;;;;;;;;7.75;7.75;;;;;25.21;31.54;100949.31;2117191;27;47647;-61
2022/07/29 00:21:51;;;;;;;;;7.00;6.00;;;;;25.20;31.51;100945.72;2090140;28;47536;-62
2022/07/29 00:22:53;;;;;;;;;7.00;7.00;;;;;25.20;31.92;100943.00;2093184;28;47588;-62
2022/07/29 00:23:53;;;;;;;;;7.80;7.00;;;;;25.20;31.92;100940.31;2118342;27;47042;-63
2022/07/29 00:24:53;;;;;;;;;8.00;8.00;;;;;25.20;31.95;100940.31;2119684;27;47768;-60
2022/07/29 00:25:54;;;;;;;;;7.00;7.00;;;;;25.20;31.82;100943.00;2115847;27;48262;-62
2022/07/29 00:26:54;;;;;;;;;8.75;7.75;;;;;25.20;31.83;100944.88;2114029;27;49004;-64
2022/07/29 00:27:54;;;;;;;;;6.75;6.75;;;;;25.19;31.62;100937.72;2119205;27;47644;-61
2022/07/29 00:28:55;;;;;;;;;7.50;6.25;;;;;25.19;31.82;100944.00;2102705;27;47232;-64
2022/07/29 00:29:55;;;;;;;;;10.00;9.75;;;;;25.19;31.61;100937.72;2102551;28;47734;-64
2022/07/29 00:30:55;;;;;;;;;9.50;9.50;;;;;25.19;32.07;100935.00;2119401;27;47609;-62
2022/07/29 00:31:56;;;;;;;;;6.25;6.25;;;;;25.17;31.63;100937.84;2120810;27;48095;-63
2022/07/29 00:32:56;;;;;;;;;8.75;8.25;;;;;25.16;32.11;100937.97;2118752;27;47372;-63
2022/07/29 00:33:56;;;;;;;;;7.25;7.25;;;;;25.13;31.84;100943.59;2121223;27;47787;-63
2022/07/29 00:36:16;;;;;;;;;7.00;7.00;;;;;25.06;32.11;100940.53;2113994;27;47746;-62
2022/07/29 00:37:16;;;;;;;;;8.75;8.75;;;;;25.04;31.81;100944.34;2118378;27;47402;-63
2022/07/29 00:38:19;;;;;;;;;8.00;8.00;;;;;25.01;31.88;100939.13;2121695;27;47175;-63
2022/07/29 00:39:20;;;;;;;;;10.00;10.00;;;;;24.97;32.28;100938.50;2115928;27;47627;-63
2022/07/29 00:40:20;;;;;;;;;6.00;6.00;;;;;24.95;32.12;100941.34;2117719;27;47316;-63
2022/07/29 00:41:21;;;;;;;;;7.50;6.00;;;;;24.91;32.04;100934.44;2100939;28;47635;-62
2022/07/29 00:42:21;;;;;;;;;7.00;7.00;;;;;24.88;32.06;100934.63;2103351;28;47451;-63
2022/07/29 00:43:21;;;;;;;;;8.75;8.75;;;;;24.87;32.19;100932.03;2103599;27;47224;-61
2022/07/29 00:44:22;;;;;;;;;9.75;8.75;;;;;24.87;32.12;100927.47;2103068;28;48177;-62
2022/07/29 00:45:22;;;;;;;;;11.00;9.25;;;;;24.87;32.16;100926.63;2119152;27;47067;-60
2022/07/29 00:46:23;;;;;;;;;10.50;10.50;;;;;24.88;32.27;100929.22;2121112;27;47596;-62
2022/07/29 00:47:23;;;;;;;;;7.75;7.75;;;;;24.88;32.78;100931.06;2120690;27;47786;-61
2022/07/29 00:48:23;;;;;;;;;8.00;8.00;;;;;24.87;32.57;100930.19;2113719;27;47813;-57
2022/07/29 00:49:24;;;;;;;;;7.75;7.75;;;;;24.88;32.46;100933.78;2102375;27;46148;-63
2022/07/29 00:50:25;;;;;;;;;6.00;6.00;;;;;24.89;32.69;100935.50;2113649;27;47454;-62
2022/07/29 00:51:26;;;;;;;;;7.75;7.75;;;;;24.88;32.17;100936.50;2120815;27;47187;-62
2022/07/29 00:52:27;;;;;;;;;9.60;9.60;;;;;24.88;32.41;100923.78;2122840;27;47863;-63
2022/07/29 00:53:29;;;;;;;;;11.25;10.75;;;;;24.87;32.55;100926.63;2109717;27;48299;-62
2022/07/29 00:54:30;;;;;;;;;8.20;8.00;;;;;24.85;32.49;100931.31;2110925;27;47934;-63
2022/07/29 00:55:30;;;;;;;;;1.25;1.25;;;;;24.82;32.01;100927.00;2120755;27;47464;-63
2022/07/29 00:56:32;;;;;;;;;12.25;12.00;;;;;24.81;32.51;100927.13;2122231;27;47890;-62
2022/07/29 00:57:34;;;;;;;;;9.40;8.00;;;;;24.78;32.67;100939.09;2121309;27;47437;-59
2022/07/29 00:58:34;;;;;;;;;8.00;8.00;;;;;24.75;32.45;100933.00;2121494;27;47988;-62
2022/07/29 00:59:35;;;;;;;;;9.00;9.00;;;;;24.70;32.48;100933.38;2121907;27;47194;-63
2022/07/29 01:00:36;;;;;;;;;8.25;8.25;;;;;24.67;32.85;100930.03;2121643;27;47551;-58
2022/07/29 01:01:36;;;;;;;;;8.00;7.60;;;;;24.63;32.56;100930.25;2121194;27;48113;-58
2022/07/29 01:02:37;;;;;;;;;8.50;8.50;;;;;24.61;32.81;100934.94;2121564;27;47784;-61
2022/07/29 01:03:37;;;;;;;;;12.75;12.50;;;;;24.59;32.87;100936.03;2118962;27;47401;-61
2022/07/29 01:04:38;;;;;;;;;10.00;9.50;;;;;24.56;32.92;100931.72;2121377;27;47482;-63
2022/07/29 01:05:41;;;;;;;;;7.60;7.60;;;;;24.53;33.22;100931.09;2122163;27;47894;-62
2022/07/29 01:06:42;;;;;;;;;10.00;9.20;;;;;24.50;33.00;100934.88;2121846;27;47708;-62
2022/07/29 01:07:43;;;;;;;;;12.00;12.00;;;;;24.47;33.28;100929.69;2121522;27;48056;-62
2022/07/29 01:08:47;;;;;;;;;13.00;13.00;;;;;24.44;33.06;100929.94;2120843;27;48511;-59
2022/07/29 01:09:47;;;;;;;;;12.40;10.80;;;;;24.42;33.35;100931.91;2122274;27;47418;-61
2022/07/29 01:10:49;;;;;;;;;13.00;11.00;;;;;24.39;32.90;100929.41;2121614;27;47814;-62
2022/07/29 01:11:50;;;;;;;;;9.40;9.40;;;;;24.36;33.24;100930.50;2122399;27;47053;-60
2022/07/29 01:12:54;;;;;;;;;11.80;10.80;;;;;24.33;33.13;100933.47;2120874;27;47811;-60
2022/07/29 01:13:55;;;;;;;;;8.40;8.40;;;;;24.31;33.35;100930.00;2122470;27;47975;-60
2022/07/29 01:14:56;;;;;;;;;8.60;8.60;;;;;24.30;33.51;100932.84;2121212;27;46530;-60
2022/07/29 01:16:01;;;;;;;;;9.20;9.20;;;;;24.27;33.68;100930.34;2122347;27;47353;-64
2022/07/29 01:17:10;;;;;;;;;8.40;8.00;;;;;24.24;33.51;100935.97;2120906;27;47408;-61
2022/07/29 01:18:18;;;;;;;;;9.00;8.60;;;;;24.21;33.46;100933.50;2122306;27;48267;-62
2022/07/29 01:19:57;;;;;;;;;11.00;9.60;;;;;24.18;33.59;100931.88;2116419;27;47262;-63
2022/07/29 01:21:15;;;;;;;;;9.60;8.20;;;;;24.16;33.62;100947.41;2087425;28;48308;-62
2022/07/29 01:22:22;;;;;;;;;12.40;11.60;;;;;24.14;33.61;100933.09;2087790;28;48023;-62
2022/07/29 01:23:47;;;;;;;;;9.60;9.40;;;;;24.13;33.70;100939.47;2089210;28;48110;-63
2022/07/29 01:25:09;;;;;;;;;8.60;7.80;;;;;24.10;33.48;100939.72;2086674;28;47518;-63
2022/07/29 01:26:42;;;;;;;;;9.80;9.40;;;;;24.06;33.86;100933.66;2087050;28;48117;-63
2022/07/29 01:28:21;;;;;;;;;7.40;7.00;;;;;24.04;33.78;100941.06;2086956;28;47823;-62
2022/07/29 01:29:28;;;;;;;;;9.00;9.00;;;;;24.02;34.09;100944.88;2061337;28;47580;-62
2022/07/29 01:30:32;;;;;;;;;4.00;4.00;;;;;24.00;33.87;100947.66;2062607;28;47754;-63
2022/07/29 01:31:38;;;;;;;;;9.40;9.40;;;;;23.99;33.89;100940.50;2064955;28;47819;-63
2022/07/29 01:32:40;;;;;;;;;5.20;5.20;;;;;23.97;34.14;100944.31;2061801;28;48202;-58
2022/07/29 01:33:48;;;;;;;;;10.60;9.60;;;;;23.96;33.90;100942.59;2060933;28;47617;-63
2022/07/29 01:34:54;;;;;;;;;8.40;7.80;;;;;23.94;33.91;100942.72;2055509;28;47588;-58
2022/07/29 01:35:55;;;;;;;;;9.00;7.40;;;;;23.93;33.97;100937.41;2054450;28;47860;-61
2022/07/29 01:37:07;;;;;;;;;7.50;7.50;;;;;23.90;34.12;100935.78;2055453;28;47708;-64
2022/07/29 01:38:12;;;;;;;;;8.40;8.40;;;;;23.89;34.09;100938.63;2062457;28;47554;-63
2022/07/29 01:39:34;;;;;;;;;8.80;6.80;;;;;23.86;33.97;100939.69;2060949;28;48411;-61
2022/07/29 01:41:14;;;;;;;;;9.40;9.40;;;;;23.87;34.25;100937.84;2062253;28;47810;-58
2022/07/29 01:42:23;;;;;;;;;7.00;7.00;;;;;23.87;34.28;100933.28;2054950;28;47682;-62
2022/07/29 01:43:36;;;;;;;;;5.80;5.80;;;;;23.89;34.17;100938.63;2053029;28;48013;-64
2022/07/29 01:44:43;;;;;;;;;8.20;8.20;;;;;23.90;34.40;100941.22;2053244;28;47994;-63
2022/07/29 01:45:50;;;;;;;;;7.00;6.20;;;;;23.91;34.07;100940.22;2054637;28;47535;-64
2022/07/29 01:46:57;;;;;;;;;8.20;6.40;;;;;23.94;34.12;100940.00;2053116;28;47517;-61
2022/07/29 01:48:10;;;;;;;;;5.00;5.00;;;;;23.96;34.56;100939.88;2054508;28;47607;-62
2022/07/29 01:49:17;;;;;;;;;7.80;7.80;;;;;23.97;34.14;100939.75;2053437;28;48050;-61
2022/07/29 01:50:22;;;;;;;;;8.00;7.00;;;;;23.97;34.24;100938.91;2046862;28;47963;-63
2022/07/29 01:51:32;;;;;;;;;6.60;6.60;;;;;23.96;34.08;100940.75;2051683;28;47190;-62
2022/07/29 01:52:53;;;;;;;;;10.20;9.60;;;;;23.95;34.05;100946.28;2055314;28;47338;-59
2022/07/29 01:54:15;;;;;;;;;9.60;8.60;;;;;23.92;34.17;100947.38;2065092;28;47672;-62
2022/07/29 01:55:17;;;;;;;;;8.00;8.00;;;;;23.90;34.16;100938.50;2066903;28;48040;-63
2022/07/29 01:56:20;;;;;;;;;8.80;8.80;;;;;23.90;34.18;100945.78;2064213;28;47846;-63
2022/07/29 01:57:28;;;;;;;;;12.00;10.40;;;;;23.90;34.18;100945.78;2068916;28;47333;-64
2022/07/29 01:58:31;;;;;;;;;11.20;11.20;;;;;23.91;34.53;100947.50;2066881;28;47049;-64
2022/07/29 01:59:34;;;;;;;;;10.00;10.00;;;;;23.92;34.17;100946.53;2069319;28;47853;-61
2022/07/29 02:00:37;;;;;;;;;12.60;9.40;;;;;23.94;34.39;100944.56;2069922;28;47458;-63
2022/07/29 02:01:40;;;;;;;;;12.60;11.00;;;;;23.93;33.88;100942.81;2070102;28;47747;-64
2022/07/29 02:02:43;;;;;;;;;10.40;10.00;;;;;23.90;34.14;100946.63;2069776;28;47947;-62
2022/07/29 02:03:45;;;;;;;;;9.80;9.80;;;;;23.89;34.14;100947.63;2070336;28;47969;-59
2022/07/29 02:04:48;;;;;;;;;11.40;11.40;;;;;23.87;34.07;100943.25;2069521;28;47630;-64
2022/07/29 02:05:50;;;;;;;;;11.00;9.40;;;;;23.86;34.19;100953.25;2070883;28;47958;-62
2022/07/29 02:06:53;;;;;;;;;9.80;9.80;;;;;23.85;34.29;100943.38;2073823;28;47944;-63
2022/07/29 02:07:55;;;;;;;;;10.00;9.60;;;;;23.83;34.20;100944.47;2098802;28;47389;-60
2022/07/29 02:08:58;;;;;;;;;9.60;9.20;;;;;23.81;34.17;100944.59;2100870;28;47324;-62
2022/07/29 02:10:02;;;;;;;;;9.40;9.40;;;;;23.77;34.11;100941.25;2098240;28;47927;-60
2022/07/29 02:11:05;;;;;;;;;12.40;11.20;;;;;23.77;34.23;100943.09;2092433;28;47747;-61
2022/07/29 02:12:06;;;;;;;;;10.40;9.40;;;;;23.74;34.38;100941.44;2088956;28;46315;-63
2022/07/29 02:13:10;;;;;;;;;11.00;11.00;;;;;23.72;34.15;100940.69;2102154;28;47813;-66
2022/07/29 02:14:14;;;;;;;;;7.40;7.40;;;;;23.72;34.41;100946.13;2103296;28;47352;-63
2022/07/29 02:15:16;;;;;;;;;8.00;8.00;;;;;23.71;34.28;100940.81;2102307;27;47816;-61
2022/07/29 02:16:21;;;;;;;;;9.00;9.00;;;;;23.69;34.54;100942.78;2088254;28;47622;-61
2022/07/29 02:17:30;;;;;;;;;6.60;6.40;;;;;23.69;34.40;100942.78;2111639;27;47280;-61
2022/07/29 02:18:32;;;;;;;;;10.00;8.80;;;;;23.68;34.39;100949.19;2122065;27;47573;-63
2022/07/29 02:19:34;;;;;;;;;8.40;8.40;;;;;23.68;34.39;100946.47;2116354;27;47534;-63
2022/07/29 02:20:36;;;;;;;;;12.00;10.20;;;;;23.67;34.51;100945.59;2120827;27;47781;-62
2022/07/29 02:21:38;;;;;;;;;8.40;8.40;;;;;23.65;34.55;100939.44;2121280;27;47855;-63
2022/07/29 02:22:40;;;;;;;;;10.40;10.40;;;;;23.64;34.48;100944.97;2114413;27;47798;-63
2022/07/29 02:23:43;;;;;;;;;8.20;8.20;;;;;23.64;34.39;100950.38;2118153;27;47506;-63
2022/07/29 02:24:44;;;;;;;;;7.40;7.40;;;;;23.62;34.60;100942.34;2120558;27;47242;-61
2022/07/29 02:25:49;;;;;;;;;7.60;7.60;;;;;23.62;34.64;100952.31;2121473;27;47495;-60
2022/07/29 02:26:52;;;;;;;;;8.00;8.00;;;;;23.62;34.42;100949.59;2120172;27;48212;-64
2022/07/29 02:27:53;;;;;;;;;5.20;5.20;;;;;23.62;34.57;100946.91;2121764;27;47491;-63
2022/07/29 02:28:57;;;;;;;;;8.60;7.60;;;;;23.61;34.55;100946.03;2120105;27;47836;-63
2022/07/29 02:30:01;;;;;;;;;8.20;8.20;;;;;23.60;34.65;100948.84;2121847;27;47261;-63
2022/07/29 02:31:03;;;;;;;;;7.60;7.40;;;;;23.60;34.71;100946.16;2107794;27;47206;-63
2022/07/29 02:32:07;;;;;;;;;7.40;5.80;;;;;23.60;34.76;100944.31;2112811;27;47998;-60
2022/07/29 02:33:11;;;;;;;;;8.20;8.20;;;;;23.60;34.61;100940.72;2120431;27;47675;-61
2022/07/29 02:34:13;;;;;;;;;7.40;7.40;;;;;23.60;34.58;100946.16;2121672;27;47998;-62
2022/07/29 02:35:15;;;;;;;;;10.40;7.40;;;;;23.58;34.56;100942.69;2116799;27;47126;-64
2022/07/29 02:36:17;;;;;;;;;8.80;8.20;;;;;23.57;34.84;100941.78;2114754;27;47598;-62
2022/07/29 02:37:18;;;;;;;;;6.00;5.60;;;;;23.56;34.84;100942.78;2119561;27;47457;-62
2022/07/29 02:39:43;;;;;;;;;6.80;6.80;;;;;23.56;34.68;100947.31;2121141;27;47587;-59
2022/07/29 02:40:44;;;;;;;;;4.80;4.80;;;;;23.55;34.44;100949.16;2116550;27;47522;-62
2022/07/29 02:41:52;;;;;;;;;6.50;6.50;;;;;23.54;34.67;100952.00;2109037;27;47330;-58
2022/07/29 02:42:52;;;;;;;;;6.40;6.40;;;;;23.54;34.73;100952.84;2114343;27;47593;-63
2022/07/29 02:43:55;;;;;;;;;6.00;6.00;;;;;23.53;35.18;100951.13;2111743;27;47444;-60
2022/07/29 02:44:56;;;;;;;;;8.60;8.40;;;;;23.53;34.81;100951.13;2113493;27;47321;-63
2022/07/29 02:46:00;;;;;;;;;5.00;5.00;;;;;23.51;34.81;100947.66;2121867;27;47537;-61
2022/07/29 02:47:24;;;;;;;;;7.60;7.60;;;;;23.52;34.65;100948.53;2120374;27;48069;-62
2022/07/29 02:48:34;;;;;;;;;6.00;6.00;;;;;23.49;34.88;100949.59;2115582;27;47624;-57
2022/07/29 02:49:40;;;;;;;;;6.80;6.80;;;;;23.49;34.66;100952.31;2117817;27;47392;-62
2022/07/29 02:50:48;;;;;;;;;7.40;7.00;;;;;23.49;35.16;100952.31;2113701;27;47323;-63
2022/07/29 02:52:03;;;;;;;;;8.40;8.00;;;;;23.47;34.89;100949.72;2118365;27;47424;-63
2022/07/29 02:53:14;;;;;;;;;6.40;5.80;;;;;23.47;35.05;100949.72;2117037;27;47619;-63
2022/07/29 02:54:22;;;;;;;;;7.80;7.80;;;;;23.46;34.86;100947.97;2114266;27;47529;-64
2022/07/29 02:55:33;;;;;;;;;8.00;6.00;;;;;23.46;34.98;100952.53;2120265;27;47706;-61
2022/07/29 02:56:34;;;;;;;;;7.00;7.00;;;;;23.44;34.86;100949.94;2121112;27;46441;-59
2022/07/29 02:57:43;;;;;;;;;8.20;7.40;;;;;23.45;35.20;100954.38;2120509;27;46538;-63
2022/07/29 02:58:53;;;;;;;;;8.00;7.00;;;;;23.43;35.25;100950.06;2120561;27;47573;-59
2022/07/29 02:59:58;;;;;;;;;6.60;6.60;;;;;23.43;34.78;100955.47;2110344;27;47637;-61
2022/07/29 03:01:07;;;;;;;;;8.40;8.00;;;;;23.41;35.13;100950.16;2111425;27;48008;-62
2022/07/29 03:02:09;;;;;;;;;6.40;6.40;;;;;23.40;35.21;100947.56;2121597;27;47209;-60
2022/07/29 03:03:14;;;;;;;;;7.80;6.60;;;;;23.40;34.99;100951.16;2120299;27;47693;-60
2022/07/29 03:04:18;;;;;;;;;6.20;5.40;;;;;23.39;34.86;100946.72;2121909;27;48104;-62
2022/07/29 03:05:20;;;;;;;;;5.60;5.60;;;;;23.40;35.37;100943.00;2120267;27;48261;-63
2022/07/29 03:06:24;;;;;;;;;5.80;4.80;;;;;23.41;35.40;100943.88;2121671;27;47210;-63
2022/07/29 03:07:25;;;;;;;;;6.20;6.20;;;;;23.43;35.35;100950.06;2120049;27;47780;-62
2022/07/29 03:08:27;;;;;;;;;7.25;7.00;;;;;23.43;35.28;100947.34;2121908;27;47397;-61
2022/07/29 03:09:29;;;;;;;;;7.60;7.00;;;;;23.44;35.22;100946.38;2115015;27;47400;-62
2022/07/29 03:10:30;;;;;;;;;6.40;6.40;;;;;23.44;35.28;100954.50;2121702;27;47918;-61
2022/07/29 03:11:32;;;;;;;;;8.40;8.00;;;;;23.44;35.48;100952.66;2120869;27;46467;-63
2022/07/29 03:12:33;;;;;;;;;7.60;7.60;;;;;23.44;35.43;100957.19;2117603;27;47715;-56
2022/07/29 03:13:35;;;;;;;;;6.60;6.60;;;;;23.43;35.49;100952.75;2107803;27;47403;-64
2022/07/29 03:14:36;;;;;;;;;9.60;8.60;;;;;23.42;35.68;100956.44;2102976;27;47563;-63
2022/07/29 03:15:37;;;;;;;;;7.80;7.80;;;;;23.41;35.25;100958.28;2111154;27;48300;-63
2022/07/29 03:16:38;;;;;;;;;8.25;8.25;;;;;23.40;35.31;100953.00;2120363;27;46557;-61
2022/07/29 03:17:39;;;;;;;;;7.50;7.50;;;;;23.38;35.55;100955.81;2120370;27;47952;-61
2022/07/29 03:18:40;;;;;;;;;9.40;8.80;;;;;23.39;35.79;100959.38;2120685;27;48140;-59
2022/07/29 03:19:41;;;;;;;;;8.50;7.50;;;;;23.38;35.94;100963.06;2121297;27;47952;-63
2022/07/29 03:20:42;;;;;;;;;9.80;9.80;;;;;23.36;35.70;100963.16;2120273;27;47666;-63
2022/07/29 03:21:42;;;;;;;;;5.75;5.75;;;;;23.36;35.51;100967.69;2121284;27;47440;-63
2022/07/29 03:22:46;;;;;;;;;8.00;8.00;;;;;23.36;35.68;100963.16;2101917;27;47743;-62
2022/07/29 03:23:47;;;;;;;;;7.40;7.40;;;;;23.36;36.08;100963.16;2101207;27;47900;-64
2022/07/29 03:24:47;;;;;;;;;8.25;8.25;;;;;23.35;35.82;100957.84;2118535;27;47582;-64
2022/07/29 03:25:51;;;;;;;;;8.50;8.50;;;;;23.35;35.80;100955.13;2117451;27;46460;-61
2022/07/29 03:26:51;;;;;;;;;7.20;7.20;;;;;23.34;35.78;100964.25;2111187;27;47618;-62
2022/07/29 03:27:52;;;;;;;;;9.00;7.75;;;;;23.35;35.91;100960.56;2112236;27;47851;-63
2022/07/29 03:28:52;;;;;;;;;8.50;8.50;;;;;23.35;36.10;100964.13;2115962;27;47460;-63
2022/07/29 03:29:52;;;;;;;;;9.75;9.75;;;;;23.36;35.79;100965.00;2108034;27;47383;-61
2022/07/29 03:30:53;;;;;;;;;8.25;8.25;;;;;23.38;35.64;100966.63;2107658;27;48016;-59
2022/07/29 03:31:54;;;;;;;;;9.50;9.50;;;;;23.38;35.85;100961.22;2121445;27;47504;-62
2022/07/29 03:32:54;;;;;;;;;8.25;8.25;;;;;23.39;35.76;100964.81;2108818;27;47477;-62
2022/07/29 03:33:55;;;;;;;;;14.25;11.50;;;;;23.38;35.93;100960.34;2110420;27;47342;-63
2022/07/29 03:34:55;;;;;;;;;12.50;10.75;;;;;23.37;35.74;100964.88;2120348;27;47287;-60
2022/07/29 03:35:56;;;;;;;;;12.25;9.00;;;;;23.37;35.70;100964.00;2121178;27;47459;-61
2022/07/29 03:36:57;;;;;;;;;9.40;9.40;;;;;23.36;35.85;100968.56;2117776;27;47644;-62
2022/07/29 03:37:58;;;;;;;;;8.50;8.50;;;;;23.36;35.86;100962.28;2118555;27;47558;-61
2022/07/29 03:39:00;;;;;;;;;13.20;11.80;;;;;23.34;35.81;100959.69;2119856;27;47494;-61
2022/07/29 03:40:05;;;;;;;;;11.40;11.00;;;;;23.33;35.89;100963.38;2102666;28;47638;-61
2022/07/29 03:41:10;;;;;;;;;13.20;12.00;;;;;23.33;35.80;100966.09;2099712;27;47587;-62
2022/07/29 03:42:15;;;;;;;;;15.80;11.60;;;;;23.33;35.89;100963.38;2112157;27;46516;-57
2022/07/29 03:43:18;;;;;;;;;14.00;14.00;;;;;23.32;36.05;100967.06;2110473;27;47292;-61
2022/07/29 03:44:21;;;;;;;;;15.60;15.20;;;;;23.32;35.97;100966.19;2105624;27;47475;-61
2022/07/29 03:45:24;;;;;;;;;14.80;14.80;;;;;23.32;35.53;100961.66;2111078;27;47775;-62
2022/07/29 03:46:28;;;;;;;;;17.00;17.00;;;;;23.32;36.03;100963.50;2121653;27;47509;-61
2022/07/29 03:47:31;;;;;;;;;18.60;16.80;;;;;23.32;36.22;100966.19;2119708;27;47996;-60
2022/07/29 03:48:35;;;;;;;;;17.20;16.60;;;;;23.32;36.10;100960.78;2120321;27;47817;-61
2022/07/29 03:49:37;;;;;;;;;15.60;15.40;;;;;23.32;35.97;100966.19;2120239;27;47643;-61
2022/07/29 03:50:38;;;;;;;;;21.80;21.40;;;;;23.31;35.97;100957.22;2119434;27;48120;-62
2022/07/29 03:51:38;;;;;;;;;25.25;24.00;;;;;23.31;36.03;100967.16;2117499;27;47397;-63
2022/07/29 03:52:40;;;;;;;;;23.25;22.50;;;;;23.30;36.09;100966.31;2120077;27;47637;-62
2022/07/29 03:53:40;;;;;;;;;18.80;18.80;;;;;23.32;36.11;100963.50;2120467;27;47642;-63
2022/07/29 03:54:41;;;;;;;;;14.75;13.75;;;;;23.32;35.69;100966.19;2120022;27;47335;-62
2022/07/29 03:55:44;;;;;;;;;18.50;18.50;;;;;23.33;36.01;100965.22;2118838;27;47532;-59
2022/07/29 03:56:48;;;;;;;;;16.60;16.20;;;;;23.34;36.13;100970.53;2116412;27;47907;-63
2022/07/29 03:57:49;;;;;;;;;18.20;18.20;;;;;23.35;35.99;100964.13;2116972;27;47863;-62
2022/07/29 03:58:52;;;;;;;;;15.00;14.60;;;;;23.38;35.92;100969.34;2120133;27;47500;-61
2022/07/29 03:59:53;;;;;;;;;21.60;18.20;;;;;23.39;35.97;100962.09;2120998;27;48800;-60
2022/07/29 04:00:55;;;;;;;;;17.80;16.60;;;;;23.41;35.93;100968.25;2118395;27;48088;-63
2022/07/29 04:01:56;;;;;;;;;11.80;11.80;;;;;23.42;35.85;100967.28;2117964;27;47965;-62
2022/07/29 04:02:57;;;;;;;;;17.60;16.20;;;;;23.42;35.93;100965.44;2120048;27;47979;-63
2022/07/29 04:03:58;;;;;;;;;16.75;16.75;;;;;23.42;35.41;100972.69;2101773;28;47780;-61
2022/07/29 04:04:58;;;;;;;;;12.75;11.25;;;;;23.42;35.79;100970.00;2100598;28;47460;-63
2022/07/29 04:06:05;;;;;;;;;17.00;17.00;;;;;23.41;35.81;100971.84;2120791;27;48151;-64
2022/07/29 04:07:06;;;;;;;;;15.00;14.60;;;;;23.40;35.80;100969.25;2119868;27;48314;-63
2022/07/29 04:08:06;;;;;;;;;16.75;15.25;;;;;23.39;35.85;100975.63;2120760;27;47624;-64
2022/07/29 04:09:07;;;;;;;;;18.00;17.25;;;;;23.38;35.91;100977.47;2115382;27;47494;-64
2022/07/29 04:10:08;;;;;;;;;15.20;15.20;;;;;23.37;36.00;100970.28;2119946;27;46781;-62
2022/07/29 04:11:09;;;;;;;;;15.75;15.75;;;;;23.36;36.20;100976.69;2119985;27;47830;-62
2022/07/29 04:12:09;;;;;;;;;3.00;3.00;;;;;23.36;35.96;100981.25;2117587;27;47062;-63
2022/07/29 04:13:10;;;;;;;;;15.00;15.00;;;;;23.34;35.96;100980.50;2119600;27;47688;-60
2022/07/29 04:14:10;;;;;;;;;14.75;14.75;;;;;23.34;36.13;100980.50;2118506;27;47557;-61
2022/07/29 04:15:11;;;;;;;;;17.25;16.00;;;;;23.33;35.92;100982.34;2113418;27;46871;-62
2022/07/29 04:16:12;;;;;;;;;13.75;13.25;;;;;23.32;36.03;100979.72;2121339;27;47178;-62
2022/07/29 04:17:12;;;;;;;;;17.00;17.00;;;;;23.30;36.02;100977.13;2110797;27;47344;-63
2022/07/29 04:18:12;;;;;;;;;17.75;17.75;;;;;23.30;35.97;100978.97;2111785;27;47355;-58
2022/07/29 04:19:13;;;;;;;;;12.25;12.25;;;;;23.28;36.21;100979.09;2116289;27;46250;-63
2022/07/29 04:20:13;;;;;;;;;13.00;13.00;;;;;23.28;36.32;100984.50;2121277;27;47733;-60
2022/07/29 04:21:14;;;;;;;;;12.50;11.00;;;;;23.28;36.26;100983.66;2110908;27;47888;-63
2022/07/29 04:22:14;;;;;;;;;19.50;17.50;;;;;23.28;36.48;100983.66;2114573;27;48189;-62
2022/07/29 04:23:15;;;;;;;;;13.75;13.50;;;;;23.29;36.42;100977.25;2117463;27;47195;-62
2022/07/29 04:24:16;;;;;;;;;12.50;12.00;;;;;23.29;36.08;100979.97;2121248;27;48034;-62
2022/07/29 04:25:16;;;;;;;;;11.00;10.00;;;;;23.30;36.54;100978.97;2114868;27;47378;-64
2022/07/29 04:26:17;;;;;;;;;14.75;13.25;;;;;23.30;36.22;100981.69;2100051;28;47759;-59
2022/07/29 04:27:18;;;;;;;;;14.80;14.20;;;;;23.31;36.10;100980.72;2096400;27;48162;-63
2022/07/29 04:28:18;;;;;;;;;11.00;11.00;;;;;23.31;36.61;100978.88;2121186;27;47926;-61
2022/07/29 04:29:19;;;;;;;;;11.75;11.75;;;;;23.32;36.68;100986.00;2119651;27;47827;-62
2022/07/29 04:30:20;;;;;;;;;12.20;12.20;;;;;23.33;36.58;100979.63;2121554;27;47243;-63
2022/07/29 04:31:20;;;;;;;;;12.25;12.25;;;;;23.35;36.40;100984.94;2119136;27;47905;-64
2022/07/29 04:32:21;;;;;;;;;13.50;13.50;;;;;23.37;36.63;100982.97;2121742;27;47482;-61
2022/07/29 04:33:21;;;;;;;;;12.75;12.00;;;;;23.38;36.67;100984.72;2118948;27;47318;-62
2022/07/29 04:34:21;;;;;;;;;13.50;13.50;;;;;23.40;36.66;100985.50;2113971;27;47121;-59
2022/07/29 04:35:22;;;;;;;;;15.00;15.00;;;;;23.41;36.73;100982.66;2119774;27;47747;-63
2022/07/29 04:36:22;;;;;;;;;15.50;13.75;;;;;23.42;37.00;100983.53;2121882;27;47419;-63
2022/07/29 04:37:23;;;;;;;;;14.25;13.50;;;;;23.44;36.67;100981.56;2100158;28;47880;-64
2022/07/29 04:38:23;;;;;;;;;11.50;11.50;;;;;23.45;36.60;100986.00;2094529;28;47407;-60
2022/07/29 04:39:24;;;;;;;;;12.00;11.00;;;;;23.45;36.72;100983.31;2117007;27;47724;-62
2022/07/29 04:40:24;;;;;;;;;12.50;12.50;;;;;23.45;36.88;100986.88;2118981;27;47850;-64
2022/07/29 04:41:24;;;;;;;;;15.25;13.75;;;;;23.46;36.75;100987.75;2096798;28;47303;-62
2022/07/29 04:42:25;;;;;;;;;13.00;12.25;;;;;23.45;36.79;100981.47;2103509;28;47363;-64
2022/07/29 04:43:25;;;;;;;;;14.25;12.75;;;;;23.46;37.00;100977.78;2119236;27;47518;-61
2022/07/29 04:44:26;;;;;;;;;14.00;14.00;;;;;23.47;36.89;100984.06;2109621;27;47742;-63
2022/07/29 04:45:27;;;;;;;;;13.60;13.60;;;;;23.46;36.88;100991.31;2109830;27;47195;-63
2022/07/29 04:46:28;;;;;;;;;14.20;14.20;;;;;23.45;36.99;100989.59;2112165;27;47252;-61
2022/07/29 04:47:28;;;;;;;;;14.00;13.25;;;;;23.44;36.95;100989.69;2105726;27;47681;-62
2022/07/29 04:48:28;;;;;;;;;12.75;12.75;;;;;23.42;37.21;100991.66;2121095;27;47341;-62
2022/07/29 04:49:29;;;;;;;;;12.25;12.25;;;;;23.40;37.11;100988.19;2118260;27;47493;-62
2022/07/29 04:50:29;;;;;;;;;15.50;13.50;;;;;23.39;36.87;100990.03;2121279;27;47319;-59
2022/07/29 04:51:30;;;;;;;;;16.75;14.00;;;;;23.39;37.33;100987.34;2109265;27;47160;-61
2022/07/29 04:52:30;;;;;;;;;14.00;12.25;;;;;23.40;37.18;100989.06;2111950;27;47859;-58
2022/07/29 04:53:31;;;;;;;;;10.50;8.75;;;;;23.41;37.17;100990.78;2116376;27;47612;-62
2022/07/29 04:54:31;;;;;;;;;13.00;12.00;;;;;23.42;37.14;100991.66;2116416;27;47827;-54